Time;durP1;ratioP1;P1;durP2;ratioP2;P2;SDS_P1;SDS_P2;PMS_P1;PMS_P2;Temp;Humidity;BMP_temperature;BMP_pressure;BME280_temperature;BME280_humidity;BME280_pressure;Samples;Min_cycle;Max_cycle;Signal;HPM_P1;HPM_P2
2021/03/07 00:00:42;;;;;;;106.38;46.75;;;89.90;2176.00;;;;;;5003180;28;20038;-67
2021/03/07 00:03:08;;;;;;;103.40;44.67;;;90.00;2176.00;;;;;;5010336;28;20479;-67
2021/03/07 00:05:34;;;;;;;89.05;41.33;;;90.00;2176.00;;;;;;5010069;28;20045;-67
2021/03/07 00:07:59;;;;;;;84.25;38.10;;;90.00;2176.00;;;;;;5004909;28;20107;-67
2021/03/07 00:10:25;;;;;;;89.90;39.22;;;90.10;2176.00;;;;;;5013403;28;20029;-67
2021/03/07 00:12:51;;;;;;;90.70;39.50;;;90.10;2176.00;;;;;;5011638;28;20030;-67
2021/03/07 00:15:19;;;;;;;92.20;39.42;;;90.10;2176.00;;;;;;4996847;28;20030;-71
2021/03/07 00:17:46;;;;;;;96.20;40.47;;;90.10;2176.00;;;;;;5010056;28;20026;-70
2021/03/07 00:20:14;;;;;;;183.63;69.07;;;90.10;2176.00;;;;;;4997712;28;20046;-67
2021/03/07 00:22:40;;;;;;;109.93;45.70;;;90.10;2176.00;;;;;;4995104;28;20034;-68
2021/03/07 00:25:08;;;;;;;86.82;40.45;;;90.10;2176.00;;;;;;4995824;28;20399;-67
2021/03/07 00:27:34;;;;;;;87.85;39.83;;;90.10;2176.00;;;;;;4994379;28;20034;-67
2021/03/07 00:30:00;;;;;;;96.60;42.83;;;90.10;2176.00;;;;;;4993563;28;20019;-67
2021/03/07 00:32:25;;;;;;;105.22;47.65;;;90.10;2176.00;;;;;;4999747;28;20018;-68
2021/03/07 00:34:51;;;;;;;108.63;47.17;;;90.00;2176.00;;;;;;5013433;28;20453;-66
2021/03/07 00:37:17;;;;;;;88.90;41.03;;;90.10;2176.00;;;;;;5013412;28;20037;-66
2021/03/07 00:39:43;;;;;;;94.22;42.70;;;90.10;2176.00;;;;;;5006615;28;20113;-67
2021/03/07 00:42:08;;;;;;;102.93;45.08;;;90.10;2176.00;;;;;;4999844;28;20396;-67
2021/03/07 00:44:34;;;;;;;104.55;46.80;;;90.10;2176.00;;;;;;4996342;28;20133;-68
2021/03/07 00:47:00;;;;;;;96.68;45.22;;;90.10;2176.00;;;;;;4996366;28;20079;-67
2021/03/07 00:49:28;;;;;;;97.30;45.13;;;90.10;2176.00;;;;;;4997386;28;20034;-68
2021/03/07 00:51:54;;;;;;;97.50;43.25;;;90.20;2176.00;;;;;;4994717;28;20062;-67
2021/03/07 00:54:20;;;;;;;100.53;42.35;;;90.20;2176.00;;;;;;4995861;28;20046;-67
2021/03/07 00:56:45;;;;;;;87.97;40.92;;;90.20;2176.00;;;;;;4994341;28;20037;-69
2021/03/07 00:59:11;;;;;;;73.50;35.45;;;90.20;2176.00;;;;;;5005943;28;20041;-67
2021/03/07 01:01:37;;;;;;;73.18;35.35;;;90.30;2176.00;;;;;;5009351;28;20030;-68
2021/03/07 01:04:04;;;;;;;65.65;31.88;;;90.40;2176.00;;;;;;5012337;28;20017;-68
2021/03/07 01:06:29;;;;;;;71.90;32.67;;;90.50;2176.00;;;;;;5012756;28;20034;-68
2021/03/07 01:08:55;;;;;;;57.50;29.08;;;90.50;2176.00;;;;;;5003929;28;20391;-68
2021/03/07 01:11:21;;;;;;;58.15;29.02;;;90.50;2176.00;;;;;;5012741;28;20029;-67
2021/03/07 01:13:47;;;;;;;62.08;30.08;;;115.20;2176.00;;;;;;5013220;28;20097;-67
2021/03/07 01:16:12;;;;;;;59.08;29.00;;;115.20;2176.00;;;;;;5012718;28;20018;-68
2021/03/07 01:18:38;;;;;;;62.90;29.05;;;115.20;2176.00;;;;;;5012336;28;20029;-66
2021/03/07 01:21:04;;;;;;;58.55;29.42;;;115.20;2176.00;;;;;;5012666;28;20073;-66
2021/03/07 01:23:32;;;;;;;63.17;28.08;;;115.20;2176.00;;;;;;4996049;28;20034;-67
2021/03/07 01:25:58;;;;;;;62.58;29.90;;;115.20;2176.00;;;;;;4995007;28;20014;-70
2021/03/07 01:28:24;;;;;;;70.68;33.35;;;115.20;2176.00;;;;;;4994995;28;20505;-72
2021/03/07 01:30:50;;;;;;;64.78;32.08;;;115.20;2176.00;;;;;;4997099;28;20153;-67
2021/03/07 01:33:16;;;;;;;70.72;33.03;;;115.20;2176.00;;;;;;4992800;28;20022;-67
2021/03/07 01:35:41;;;;;;;70.85;34.97;;;115.20;2176.00;;;;;;4993446;28;20029;-67
2021/03/07 01:38:07;;;;;;;72.57;34.47;;;115.30;2176.00;;;;;;4998804;28;20104;-67
2021/03/07 01:40:53;;;;;;;71.47;34.95;;;115.30;2176.00;;;;;;5011675;28;20033;-67
2021/03/07 01:43:21;;;;;;;70.97;32.90;;;115.30;2176.00;;;;;;5002356;28;20038;-70
2021/03/07 01:45:47;;;;;;;59.30;29.00;;;115.40;2176.00;;;;;;5010290;28;20643;-66
2021/03/07 01:48:15;;;;;;;58.22;29.92;;;115.40;2176.00;;;;;;5000820;28;20053;-67
2021/03/07 01:50:47;;;;;;;59.05;28.00;;;115.40;2176.00;;;;;;5011781;28;20437;-68
2021/03/07 01:53:15;;;;;;;56.40;29.75;;;115.30;2176.00;;;;;;5012039;28;20025;-68
2021/03/07 01:55:41;;;;;;;62.00;28.63;;;115.30;2176.00;;;;;;5012143;28;20026;-68
2021/03/07 01:58:28;;;;;;;57.85;28.15;;;115.40;2176.00;;;;;;5011927;28;20442;-67
2021/03/07 02:00:54;;;;;;;58.75;28.08;;;115.40;2176.00;;;;;;5012146;28;20132;-68
2021/03/07 02:03:20;;;;;;;57.00;27.83;;;115.40;2176.00;;;;;;5012216;28;20041;-67
2021/03/07 02:05:47;;;;;;;68.53;31.02;;;115.50;2176.00;;;;;;5011886;28;20486;-70
2021/03/07 02:08:14;;;;;;;65.95;31.52;;;115.50;2176.00;;;;;;5011743;28;20049;-67
2021/03/07 02:10:43;;;;;;;61.47;29.65;;;115.50;2176.00;;;;;;5011556;28;20057;-66
2021/03/07 02:13:15;;;;;;;61.08;28.02;;;115.50;2176.00;;;;;;5011594;28;20024;-67
2021/03/07 02:15:44;;;;;;;57.67;27.40;;;115.50;2176.00;;;;;;5011759;28;20022;-67
2021/03/07 02:18:12;;;;;;;55.88;26.35;;;115.50;2176.00;;;;;;5011637;28;20064;-66
2021/03/07 02:20:45;;;;;;;67.68;29.48;;;115.50;2176.00;;;;;;5011689;28;20037;-66
2021/03/07 02:23:18;;;;;;;62.60;29.80;;;115.50;2176.00;;;;;;5010789;28;20018;-66
2021/03/07 02:25:45;;;;;;;56.25;26.75;;;115.50;2176.00;;;;;;5000614;28;20030;-67
2021/03/07 02:28:11;;;;;;;56.85;26.33;;;115.50;2176.00;;;;;;5011598;28;20026;-66
2021/03/07 02:30:37;;;;;;;61.78;28.45;;;115.50;2176.00;;;;;;5010700;28;20030;-67
2021/03/07 02:33:20;;;;;;;60.72;27.73;;;115.50;2176.00;;;;;;5011393;28;20029;-67
2021/03/07 02:36:02;;;;;;;59.97;27.98;;;115.50;2176.00;;;;;;5011344;28;20072;-71
2021/03/07 02:38:31;;;;;;;69.35;29.35;;;115.50;2176.00;;;;;;5011351;28;20029;-67
2021/03/07 02:40:59;;;;;;;56.60;26.35;;;115.60;2176.00;;;;;;5011032;28;20023;-70
2021/03/07 02:43:28;;;;;;;45.03;22.75;;;115.60;2176.00;;;;;;5011768;28;20033;-71
2021/03/07 02:45:57;;;;;;;47.77;22.63;;;115.70;2176.00;;;;;;5007320;28;20438;-71
2021/03/07 02:48:25;;;;;;;43.42;22.23;;;115.70;2176.00;;;;;;4993542;28;20022;-67
2021/03/07 02:50:52;;;;;;;52.65;23.13;;;115.80;2176.00;;;;;;4994615;28;20026;-67
2021/03/07 02:53:22;;;;;;;48.60;23.23;;;115.90;2176.00;;;;;;4992361;28;20030;-66
2021/03/07 02:55:55;;;;;;;44.25;21.08;;;116.00;2176.00;;;;;;5005991;28;20029;-66
2021/03/07 02:58:23;;;;;;;42.30;22.05;;;116.00;2176.00;;;;;;5010859;28;20034;-68
2021/03/07 03:00:53;;;;;;;42.63;22.23;;;116.00;2176.00;;;;;;5004554;28;20137;-66
2021/03/07 03:03:25;;;;;;;49.03;23.25;;;116.00;2176.00;;;;;;5000028;28;20022;-68
2021/03/07 03:05:52;;;;;;;48.50;23.92;;;116.00;2176.00;;;;;;5010927;28;20049;-67
2021/03/07 03:08:18;;;;;;;53.92;25.45;;;116.00;2176.00;;;;;;5010776;28;20030;-67
2021/03/07 03:10:44;;;;;;;56.00;27.33;;;116.00;2176.00;;;;;;5010927;28;20041;-66
2021/03/07 03:13:11;;;;;;;52.67;24.85;;;116.00;2176.00;;;;;;5010741;28;20017;-67
2021/03/07 03:15:37;;;;;;;52.40;23.88;;;116.00;2176.00;;;;;;5011071;28;20514;-66
2021/03/07 03:18:04;;;;;;;51.17;24.08;;;116.00;2176.00;;;;;;5010704;28;20034;-66
2021/03/07 03:20:31;;;;;;;50.88;24.25;;;116.00;2176.00;;;;;;5011029;28;20034;-67
2021/03/07 03:22:57;;;;;;;51.78;23.80;;;116.10;2176.00;;;;;;5010745;28;20060;-68
2021/03/07 03:25:23;;;;;;;45.63;22.90;;;116.10;2176.00;;;;;;4999461;28;20487;-67
2021/03/07 03:27:53;;;;;;;41.67;21.05;;;116.10;2176.00;;;;;;5010715;28;20069;-66
2021/03/07 03:30:20;;;;;;;48.58;22.30;;;116.10;2176.00;;;;;;5010402;28;20029;-66
2021/03/07 03:32:46;;;;;;;44.78;22.17;;;116.10;2176.00;;;;;;5010996;28;20026;-68
2021/03/07 03:35:15;;;;;;;46.75;22.27;;;116.10;2176.00;;;;;;5010937;28;20483;-68
2021/03/07 03:37:43;;;;;;;42.97;19.75;;;116.10;2176.00;;;;;;5010614;28;20018;-67
2021/03/07 03:40:13;;;;;;;48.97;22.42;;;116.10;2176.00;;;;;;5010785;28;20026;-68
2021/03/07 03:42:41;;;;;;;43.42;21.88;;;116.10;2176.00;;;;;;5013108;28;20018;-68
2021/03/07 03:45:11;;;;;;;44.72;21.38;;;116.10;2176.00;;;;;;5013025;28;20044;-70
2021/03/07 03:47:38;;;;;;;;;;;116.00;2176.00;;;;;;5014838;28;20037;-66
2021/03/07 03:50:06;;;;;;;39.30;17.80;;;115.90;2176.00;;;;;;5014195;28;20250;-66
2021/03/07 03:52:36;;;;;;;34.05;17.25;;;115.90;2176.00;;;;;;5014365;28;20018;-67
2021/03/07 03:55:15;;;;;;;37.13;17.42;;;115.80;2176.00;;;;;;5014465;28;20042;-67
2021/03/07 03:57:43;;;;;;;31.88;15.55;;;115.90;2176.00;;;;;;5014059;28;20022;-66
2021/03/07 04:00:14;;;;;;;36.20;17.85;;;115.90;2176.00;;;;;;5014406;28;20490;-67
2021/03/07 04:02:41;;;;;;;30.48;15.23;;;115.90;2176.00;;;;;;5014021;28;20026;-66
2021/03/07 04:05:09;;;;;;;36.70;17.33;;;115.90;2176.00;;;;;;5014371;28;20030;-66
2021/03/07 04:07:37;;;;;;;35.10;18.02;;;115.90;2176.00;;;;;;5014237;28;20395;-66
2021/03/07 04:10:06;;;;;;;38.67;19.27;;;116.00;2176.00;;;;;;5015481;28;20026;-67
2021/03/07 04:12:35;;;;;;;45.60;20.83;;;116.00;2176.00;;;;;;5013761;28;20097;-67
2021/03/07 04:15:02;;;;;;;57.00;25.67;;;116.00;2176.00;;;;;;5013845;28;20054;-67
2021/03/07 04:17:29;;;;;;;55.55;25.52;;;116.00;2176.00;;;;;;5014014;28;20068;-67
2021/03/07 04:19:55;;;;;;;54.63;24.98;;;116.00;2176.00;;;;;;5013384;28;20037;-67
2021/03/07 04:22:22;;;;;;;51.13;24.55;;;116.10;2176.00;;;;;;5013732;28;20057;-68
2021/03/07 04:24:48;;;;;;;155.35;50.10;;;140.80;2176.00;;;;;;5013496;28;20498;-67
2021/03/07 04:27:15;;;;;;;144.15;46.60;;;140.90;2176.00;;;;;;5013901;28;20030;-71
2021/03/07 04:29:42;;;;;;;67.47;28.85;;;140.90;2176.00;;;;;;5013520;28;20450;-68
2021/03/07 04:32:09;;;;;;;70.45;27.92;;;140.90;2176.00;;;;;;5013745;28;20379;-68
2021/03/07 04:34:35;;;;;;;54.90;26.77;;;141.00;2176.00;;;;;;5013601;28;20033;-68
2021/03/07 04:37:02;;;;;;;57.45;25.42;;;141.00;2176.00;;;;;;5013936;28;20699;-70
2021/03/07 04:39:28;;;;;;;51.15;24.70;;;141.10;2176.00;;;;;;5013204;28;20383;-71
2021/03/07 04:41:54;;;;;;;47.30;22.55;;;141.10;2176.00;;;;;;5009502;28;20105;-66
2021/03/07 04:44:20;;;;;;;45.30;21.48;;;141.10;2176.00;;;;;;5002250;28;20022;-66
2021/03/07 04:46:45;;;;;;;44.10;21.35;;;141.10;2176.00;;;;;;5013528;28;20113;-70
2021/03/07 04:49:11;;;;;;;42.25;21.40;;;141.10;2176.00;;;;;;5012810;28;20022;-66
2021/03/07 04:51:37;;;;;;;53.33;25.23;;;141.10;2176.00;;;;;;5013341;28;20032;-67
2021/03/07 04:54:03;;;;;;;55.25;26.98;;;141.10;2176.00;;;;;;5012362;28;20084;-65
2021/03/07 04:56:30;;;;;;;51.97;25.27;;;141.10;2176.00;;;;;;5013720;28;20352;-65
2021/03/07 04:58:56;;;;;;;38.03;18.95;;;141.10;2176.00;;;;;;5012700;28;20014;-65
2021/03/07 05:01:22;;;;;;;32.15;17.05;;;141.20;2176.00;;;;;;5013385;28;20152;-70
2021/03/07 05:03:48;;;;;;;35.90;16.65;;;141.30;2176.00;;;;;;5008537;28;20097;-67
2021/03/07 05:06:14;;;;;;;31.27;16.15;;;141.40;2176.00;;;;;;5012308;28;20877;-68
2021/03/07 05:08:40;;;;;;;30.50;16.13;;;141.40;2176.00;;;;;;5012739;28;20037;-67
2021/03/07 05:11:06;;;;;;;31.88;16.45;;;141.40;2176.00;;;;;;5012413;28;20026;-66
2021/03/07 05:13:32;;;;;;;29.38;15.85;;;141.40;2176.00;;;;;;5013062;28;20037;-66
2021/03/07 05:15:58;;;;;;;39.45;18.83;;;141.30;2176.00;;;;;;5012848;28;20022;-67
2021/03/07 05:18:23;;;;;;;33.58;16.50;;;141.30;2176.00;;;;;;5012917;28;20577;-67
2021/03/07 05:20:50;;;;;;;33.40;16.75;;;141.20;2176.00;;;;;;5011076;28;20037;-67
2021/03/07 05:23:16;;;;;;;34.08;16.92;;;140.90;2176.00;;;;;;5012586;28;20014;-66
2021/03/07 05:25:41;;;;;;;30.55;16.95;;;140.90;2176.00;;;;;;5012885;28;20022;-67
2021/03/07 05:28:07;;;;;;;30.25;16.60;;;116.10;2176.00;;;;;;5012435;28;20065;-67
2021/03/07 05:30:33;;;;;;;28.88;15.85;;;115.90;2176.00;;;;;;5012517;28;20049;-66
2021/03/07 05:32:59;;;;;;;30.10;16.25;;;115.70;2176.00;;;;;;5012312;28;20025;-67
2021/03/07 05:35:25;;;;;;;34.50;19.30;;;115.30;2176.00;;;;;;5012569;28;20018;-66
2021/03/07 05:37:51;;;;;;;29.52;15.35;;;90.10;2176.00;;;;;;5012251;28;20022;-66
2021/03/07 05:40:17;;;;;;;31.02;15.70;;;89.60;2201.60;;;;;;5011676;28;20386;-66
2021/03/07 05:42:43;;;;;;;35.95;18.70;;;64.60;2201.60;;;;;;5012635;28;20087;-66
2021/03/07 05:45:10;;;;;;;32.22;17.48;;;64.40;2201.60;;;;;;5012403;28;20022;-69
2021/03/07 05:47:36;;;;;;;34.17;18.10;;;64.40;2201.60;;;;;;5012291;28;20032;-66
2021/03/07 05:50:03;;;;;;;37.50;19.10;;;64.10;2201.60;;;;;;5011619;28;20683;-67
2021/03/07 05:52:29;;;;;;;32.60;18.98;;;64.10;2201.60;;;;;;5012159;28;20048;-68
2021/03/07 05:54:57;;;;;;;33.90;18.20;;;39.10;2176.00;;;;;;5011985;28;20057;-71
2021/03/07 05:57:24;;;;;;;37.60;20.13;;;38.70;2150.40;;;;;;5012373;28;20025;-68
2021/03/07 05:59:50;;;;;;;34.25;17.65;;;38.40;2099.20;;;;;;5011631;28;20026;-67
2021/03/07 06:02:16;;;;;;;30.73;17.23;;;38.40;2048.00;;;;;;5011808;28;20104;-66
2021/03/07 06:04:44;;;;;;;29.13;16.17;;;13.70;2048.00;;;;;;5012148;28;20026;-66
2021/03/07 06:07:10;;;;;;;50.72;24.27;;;13.20;2022.40;;;;;;5011696;28;20036;-67
2021/03/07 06:09:36;;;;;;;42.88;22.25;;;13.20;1996.80;;;;;;5011240;28;20041;-68
2021/03/07 06:12:13;;;;;;;29.27;17.23;;;13.30;1996.80;;;;;;5011910;28;20479;-66
2021/03/07 06:14:38;;;;;;;24.80;15.68;;;13.20;1996.80;;;;;;5011785;28;20032;-66
2021/03/07 06:17:07;;;;;;;25.95;16.35;;;13.00;1971.20;;;;;;5011892;28;20022;-66
2021/03/07 06:19:54;;;;;;;27.30;16.33;;;0.30;1945.60;;;;;;5011699;28;20092;-67
2021/03/07 06:22:19;;;;;;;28.95;16.92;;;25.70;1894.40;;;;;;5011997;28;20525;-67
2021/03/07 06:24:45;;;;;;;29.75;18.17;;;25.90;1868.80;;;;;;5011704;28;20053;-68
2021/03/07 06:27:13;;;;;;;26.50;17.33;;;26.10;1843.20;;;;;;5012041;28;20398;-67
2021/03/07 06:29:57;;;;;;;27.95;18.17;;;25.80;1843.20;;;;;;5012683;28;20022;-67
2021/03/07 06:32:25;;;;;;;24.95;16.30;;;25.80;1868.80;;;;;;5011423;28;20054;-67
2021/03/07 06:34:51;;;;;;;30.45;18.58;;;25.70;1868.80;;;;;;5011514;28;20021;-66
2021/03/07 06:37:17;;;;;;;34.72;22.35;;;26.20;1843.20;;;;;;5011738;28;20104;-67
2021/03/07 06:39:43;;;;;;;33.15;21.35;;;51.20;1843.20;;;;;;5011105;28;20017;-67
2021/03/07 06:42:10;;;;;;;36.75;20.27;;;51.60;1792.00;;;;;;5011271;28;20025;-68
2021/03/07 06:44:38;;;;;;;31.98;20.00;;;51.40;1792.00;;;;;;5011694;28;20080;-67
2021/03/07 06:47:08;;;;;;;36.42;22.73;;;51.80;1792.00;;;;;;5011599;28;20029;-67
2021/03/07 06:49:34;;;;;;;74.47;33.10;;;77.30;1715.20;;;;;;5011190;28;20037;-68
2021/03/07 06:52:20;;;;;;;46.80;24.90;;;128.80;1536.00;;;;;;5011410;28;20290;-67
2021/03/07 06:55:12;;;;;;;30.95;19.30;;;205.40;1305.60;;;;;;5000013;28;20041;-67
2021/03/07 06:57:37;;;;;;;45.83;28.27;;;230.90;1228.80;;;;;;5011195;28;20014;-67
2021/03/07 07:00:06;;;;;;;28.67;17.35;;;230.90;1177.60;;;;;;5010805;28;20037;-67
2021/03/07 07:02:32;;;;;;;25.85;17.83;;;256.70;1075.20;;;;;;5011476;28;20033;-71
2021/03/07 07:04:58;;;;;;;32.55;21.15;;;307.30;1075.20;;;;;;5010945;28;20034;-71
2021/03/07 07:07:25;;;;;;;32.53;21.10;;;333.60;998.40;;;;;;5011355;28;20030;-68
2021/03/07 07:10:06;;;;;;;26.00;18.80;;;358.50;972.80;;;;;;5010399;28;20030;-69
2021/03/07 07:12:32;;;;;;;52.53;35.33;;;333.40;972.80;;;;;;5011336;28;20030;-69
2021/03/07 07:15:08;;;;;;;36.75;26.52;;;359.00;947.20;;;;;;5010925;28;20029;-68
2021/03/07 07:17:35;;;;;;;44.55;33.88;;;409.90;896.00;;;;;;5015062;28;20021;-72
2021/03/07 07:20:01;;;;;;;32.97;26.35;;;460.80;844.80;;;;;;5014954;28;20419;-68
2021/03/07 07:22:26;;;;;;;28.30;22.08;;;436.10;819.20;;;;;;5015105;28;20526;-68
2021/03/07 07:24:52;;;;;;;35.22;27.98;;;486.40;793.60;;;;;;5014758;28;20434;-69
2021/03/07 07:27:19;;;;;;;28.30;22.40;;;487.10;742.40;;;;;;5015148;28;20093;-68
2021/03/07 07:29:45;;;;;;;25.85;19.48;;;512.70;716.80;;;;;;5014213;28;20475;-69
2021/03/07 07:32:31;;;;;;;29.55;23.05;;;512.20;742.40;;;;;;5014847;28;20062;-68
2021/03/07 07:35:18;;;;;;;35.85;27.65;;;512.10;716.80;;;;;;5014491;28;20032;-67
2021/03/07 07:38:01;;;;;;;28.55;22.67;;;512.50;742.40;;;;;;5014835;28;20426;-69
2021/03/07 07:40:38;;;;;;;27.60;23.25;;;538.00;716.80;;;;;;5002376;28;20038;-69
2021/03/07 07:43:04;;;;;;;33.30;29.30;;;563.50;742.40;;;;;;5014711;28;20038;-69
2021/03/07 07:45:31;;;;;;;34.10;28.50;;;614.40;691.20;;;;;;5014508;28;20033;-69
2021/03/07 07:47:57;;;;;;;26.40;22.35;;;589.70;691.20;;;;;;5014440;28;20030;-69
2021/03/07 07:50:31;;;;;;;27.35;22.73;;;589.60;691.20;;;;;;5013917;28;20040;-69
2021/03/07 07:53:14;;;;;;;25.00;20.35;;;563.40;742.40;;;;;;5014289;28;20026;-69
2021/03/07 07:55:47;;;;;;;45.85;33.63;;;538.10;691.20;;;;;;5014363;28;20034;-69
2021/03/07 07:58:35;;;;;;;35.70;29.13;;;589.30;716.80;;;;;;5014526;28;20052;-70
2021/03/07 08:01:12;;;;;;;51.45;37.58;;;589.40;716.80;;;;;;5013958;28;20109;-69
2021/03/07 08:03:44;;;;;;;31.13;24.98;;;640.20;640.00;;;;;;5014397;28;20026;-69
2021/03/07 08:06:30;;;;;;;30.23;26.35;;;640.60;640.00;;;;;;5014245;28;20041;-69
2021/03/07 08:08:56;;;;;;;28.05;24.35;;;615.20;665.60;;;;;;5009753;28;20526;-70
2021/03/07 08:11:24;;;;;;;31.40;27.88;;;666.10;614.40;;;;;;5013765;28;20026;-69
2021/03/07 08:13:58;;;;;;;34.47;29.00;;;691.40;614.40;;;;;;5012768;28;20022;-72
2021/03/07 08:16:36;;;;;;;28.88;24.65;;;640.00;665.60;;;;;;5013874;28;20471;-70
2021/03/07 08:19:02;;;;;;;29.88;24.02;;;640.50;640.00;;;;;;5013822;28;20049;-69
2021/03/07 08:21:28;;;;;;;38.20;29.13;;;691.20;614.40;;;;;;5013592;28;20408;-70
2021/03/07 08:23:55;;;;;;;35.60;27.50;;;691.60;588.80;;;;;;5013294;28;20056;-73
2021/03/07 08:26:22;;;;;;;29.33;24.27;;;742.50;614.40;;;;;;5013629;28;20079;-72
2021/03/07 08:28:48;;;;;;;29.98;23.80;;;743.10;588.80;;;;;;5012549;28;20085;-70
2021/03/07 08:31:20;;;;;;;32.05;25.95;;;742.60;588.80;;;;;;5013821;28;20025;-71
2021/03/07 08:33:46;;;;;;;27.13;24.17;;;793.90;563.20;;;;;;5013912;28;20105;-70
2021/03/07 08:36:19;;;;;;;24.98;22.27;;;768.50;563.20;;;;;;5013892;28;20026;-70
2021/03/07 08:38:54;;;;;;;25.33;22.27;;;742.90;588.80;;;;;;5013432;28;20363;-70
2021/03/07 08:41:46;;;;;;;24.40;21.52;;;742.90;588.80;;;;;;5013686;28;20079;-71
2021/03/07 08:44:16;;;;;;;23.30;20.35;;;820.10;512.00;;;;;;5003347;28;20352;-70
2021/03/07 08:46:41;;;;;;;21.88;19.58;;;742.70;588.80;;;;;;5013286;28;20026;-70
2021/03/07 08:49:18;;;;;;;25.05;22.35;;;768.20;537.60;;;;;;5012960;28;20145;-72
2021/03/07 08:51:46;;;;;;;21.58;18.02;;;793.90;563.20;;;;;;5007422;28;20022;-71
2021/03/07 08:54:21;;;;;;;18.00;16.10;;;820.00;512.00;;;;;;5013390;28;20118;-70
2021/03/07 08:56:50;;;;;;;20.45;17.90;;;794.00;537.60;;;;;;5013319;28;20545;-70
2021/03/07 08:59:16;;;;;;;18.17;16.23;;;768.90;512.00;;;;;;5013192;28;20025;-71
2021/03/07 09:01:43;;;;;;;19.42;17.30;;;793.70;537.60;;;;;;5013322;28;20132;-71
2021/03/07 09:04:10;;;;;;;17.17;15.07;;;794.10;537.60;;;;;;5013040;28;20475;-70
2021/03/07 09:06:44;;;;;;;17.77;15.45;;;793.90;537.60;;;;;;5013128;28;20022;-71
2021/03/07 09:09:22;;;;;;;16.65;14.95;;;819.20;512.00;;;;;;5012575;28;20059;-70
2021/03/07 09:12:05;;;;;;;17.88;15.95;;;845.20;512.00;;;;;;5013114;28;20022;-71
2021/03/07 09:14:39;;;;;;;18.92;17.00;;;871.30;460.80;;;;;;5012977;28;20029;-70
2021/03/07 09:17:23;;;;;;;18.17;15.80;;;870.90;460.80;;;;;;5012758;28;20042;-70
2021/03/07 09:19:50;;;;;;;21.58;16.60;;;871.10;486.40;;;;;;5012387;28;20026;-71
2021/03/07 09:22:26;;;;;;;18.15;15.73;;;948.10;435.20;;;;;;5012600;28;20018;-70
2021/03/07 09:25:06;;;;;;;23.50;21.20;;;947.50;435.20;;;;;;5012697;28;20026;-73
2021/03/07 09:27:40;;;;;;;18.00;16.10;;;922.00;460.80;;;;;;5012879;28;20105;-73
2021/03/07 09:30:09;;;;;;;19.10;15.73;;;870.80;460.80;;;;;;5012137;28;20067;-74
2021/03/07 09:32:40;;;;;;;14.93;13.30;;;921.90;460.80;;;;;;5003110;28;20030;-71
2021/03/07 09:35:34;;;;;;;15.20;13.52;;;896.10;435.20;;;;;;5000529;28;20466;-71
2021/03/07 09:38:06;;;;;;;14.95;12.90;;;896.40;460.80;;;;;;4994264;28;20019;-70
2021/03/07 09:40:41;;;;;;;15.18;13.07;;;972.80;435.20;;;;;;5011704;28;20382;-71
2021/03/07 09:43:08;;;;;;;12.27;10.98;;;972.90;435.20;;;;;;5012437;28;20042;-70
2021/03/07 09:45:37;;;;;;;12.10;10.77;;;998.60;435.20;;;;;;5012098;28;20040;-73
2021/03/07 09:48:04;;;;;;;11.82;9.57;;;922.20;435.20;;;;;;5012082;28;20030;-70
2021/03/07 09:50:30;;;;;;;9.57;8.57;;;921.70;435.20;;;;;;5011721;28;20478;-70
2021/03/07 09:52:56;;;;;;;10.40;9.30;;;947.20;409.60;;;;;;5012008;28;20026;-70
2021/03/07 09:55:25;;;;;;;10.80;9.05;;;998.60;409.60;;;;;;5010713;28;20046;-73
2021/03/07 09:58:08;;;;;;;10.03;8.60;;;973.40;409.60;;;;;;4993134;28;20050;-70
2021/03/07 10:00:36;;;;;;;15.38;10.90;;;947.60;409.60;;;;;;4998261;28;20030;-71
2021/03/07 10:03:03;;;;;;;15.35;13.15;;;973.40;409.60;;;;;;5012446;28;20089;-73
2021/03/07 10:05:29;;;;;;;9.60;8.60;;;973.70;409.60;;;;;;5012250;28;20108;-71
2021/03/07 10:07:55;;;;;;;12.63;9.93;;;973.10;409.60;;;;;;5011593;28;20073;-70
2021/03/07 10:10:25;;;;;;;8.77;7.55;;;1024.60;384.00;;;;;;5011541;28;20447;-71
2021/03/07 10:12:59;;;;;;;8.27;7.18;;;998.80;384.00;;;;;;5011369;28;20083;-74
2021/03/07 10:15:32;;;;;;;9.20;7.68;;;1050.50;384.00;;;;;;5009809;28;20487;-75
2021/03/07 10:18:03;;;;;;;10.57;9.07;;;1075.90;358.40;;;;;;5004590;28;20131;-72
2021/03/07 10:20:38;;;;;;;11.23;10.07;;;998.80;409.60;;;;;;5010844;28;20079;-70
2021/03/07 10:23:04;;;;;;;13.02;11.10;;;845.20;460.80;;;;;;5011169;28;20639;-71
2021/03/07 10:25:39;;;;;;;14.32;11.48;;;922.50;409.60;;;;;;5008337;28;20101;-70
2021/03/07 10:28:24;;;;;;;9.20;7.55;;;973.10;409.60;;;;;;5009683;28;20067;-70
2021/03/07 10:30:52;;;;;;;38.03;17.52;;;948.10;358.40;;;;;;5004179;28;20966;-74
2021/03/07 10:33:27;;;;;;;19.00;14.27;;;973.40;384.00;;;;;;5009198;28;20038;-71
2021/03/07 10:36:10;;;;;;;12.98;10.88;;;1024.20;358.40;;;;;;5010280;28;20030;-70
2021/03/07 10:38:43;;;;;;;11.13;10.00;;;1101.70;384.00;;;;;;5003926;28;20026;-71
2021/03/07 10:41:21;;;;;;;10.80;8.88;;;1075.60;358.40;;;;;;4998850;28;20042;-72
2021/03/07 10:43:49;;;;;;;8.80;7.75;;;947.60;384.00;;;;;;4992260;28;20035;-71
2021/03/07 10:46:32;;;;;;;9.45;7.82;;;1024.30;358.40;;;;;;4994491;28;20026;-70
2021/03/07 10:49:01;;;;;;;11.10;9.95;;;1075.90;358.40;;;;;;4997949;28;20028;-71
2021/03/07 10:51:27;;;;;;;15.35;10.00;;;1075.20;358.40;;;;;;5005366;28;20513;-72
2021/03/07 10:53:53;;;;;;;13.98;9.35;;;999.00;384.00;;;;;;4994804;28;20054;-70
2021/03/07 10:56:19;;;;;;;9.52;7.63;;;1024.90;358.40;;;;;;4995782;28;20104;-70
2021/03/07 10:58:46;;;;;;;10.02;7.80;;;1075.20;358.40;;;;;;5007581;28;20029;-70
2021/03/07 11:01:16;;;;;;;9.52;7.65;;;1101.00;384.00;;;;;;5002669;28;20050;-71
2021/03/07 11:03:43;;;;;;;12.38;10.50;;;973.70;358.40;;;;;;4993502;28;20034;-70
2021/03/07 11:06:09;;;;;;;12.45;10.70;;;1024.20;358.40;;;;;;5009523;28;20022;-71
2021/03/07 11:08:36;;;;;;;11.60;8.45;;;1024.20;358.40;;;;;;5000981;28;20052;-70
2021/03/07 11:11:02;;;;;;;18.63;12.73;;;973.10;384.00;;;;;;5006077;28;20030;-71
2021/03/07 11:13:28;;;;;;;7.97;6.40;;;947.80;358.40;;;;;;5005310;28;20487;-74
2021/03/07 11:15:53;;;;;;;8.95;8.05;;;973.40;358.40;;;;;;5005639;28;20033;-73
2021/03/07 11:18:19;;;;;;;9.30;7.68;;;973.70;358.40;;;;;;4998067;28;20101;-74
2021/03/07 11:20:45;;;;;;;7.88;6.55;;;1024.40;358.40;;;;;;5010642;28;20025;-73
2021/03/07 11:23:10;;;;;;;6.72;5.90;;;973.50;358.40;;;;;;5010889;28;20045;-71
2021/03/07 11:25:36;;;;;;;9.98;6.80;;;973.20;358.40;;;;;;5010974;28;20453;-72
2021/03/07 11:28:02;;;;;;;10.07;8.32;;;896.40;384.00;;;;;;5010749;28;20117;-71
2021/03/07 11:30:28;;;;;;;7.18;5.57;;;972.90;384.00;;;;;;5012668;28;20076;-70
2021/03/07 11:32:53;;;;;;;7.90;6.22;;;922.00;384.00;;;;;;4996321;28;20026;-71
2021/03/07 11:35:19;;;;;;;7.00;5.18;;;794.00;435.20;;;;;;4998675;28;20494;-70
2021/03/07 11:37:45;;;;;;;6.28;5.00;;;768.00;409.60;;;;;;5011034;28;20119;-71
2021/03/07 11:40:11;;;;;;;6.63;5.10;;;871.10;358.40;;;;;;5001261;28;20040;-72
2021/03/07 11:42:37;;;;;;;7.97;6.30;;;947.90;332.80;;;;;;4998219;28;20041;-71
2021/03/07 11:45:04;;;;;;;8.45;6.50;;;973.70;358.40;;;;;;5005896;28;20033;-71
2021/03/07 11:47:30;;;;;;;7.18;5.43;;;947.90;358.40;;;;;;5004878;28;20041;-72
2021/03/07 11:49:55;;;;;;;7.53;5.80;;;973.40;332.80;;;;;;5009840;28;20022;-69
2021/03/07 11:52:21;;;;;;;8.77;7.53;;;973.20;358.40;;;;;;4996476;28;20062;-71
2021/03/07 11:54:47;;;;;;;32.85;20.05;;;896.70;358.40;;;;;;4995944;28;20423;-70
2021/03/07 11:57:12;;;;;;;8.40;6.20;;;871.10;358.40;;;;;;4995742;28;20014;-70
2021/03/07 11:59:38;;;;;;;12.15;10.95;;;845.30;409.60;;;;;;4999559;28;20493;-69
2021/03/07 12:02:04;;;;;;;7.15;6.25;;;896.20;358.40;;;;;;5002339;28;20088;-69
2021/03/07 12:04:30;;;;;;;8.18;6.80;;;921.70;358.40;;;;;;5010413;28;20394;-69
2021/03/07 12:06:56;;;;;;;8.85;7.95;;;921.60;384.00;;;;;;5001781;28;20022;-69
2021/03/07 12:09:22;;;;;;;10.85;8.20;;;948.00;332.80;;;;;;5005552;28;20038;-69
2021/03/07 12:11:47;;;;;;;9.07;6.85;;;973.00;358.40;;;;;;5002738;28;20097;-70
2021/03/07 12:14:13;;;;;;;6.28;4.88;;;999.30;332.80;;;;;;5002563;28;20030;-71